createdAt,value
2023-04-11T00:00:17.681Z,6.90
2023-04-11T00:02:46.826Z,6.80
2023-04-11T00:05:15.279Z,7.18
2023-04-11T00:07:43.390Z,7.18
2023-04-11T00:10:11.996Z,6.95
2023-04-11T00:12:40.286Z,6.70
2023-04-11T00:15:09.603Z,6.70
2023-04-11T00:17:39.412Z,6.55
2023-04-11T00:20:10.911Z,6.93
2023-04-11T00:22:39.998Z,6.13
2023-04-11T00:25:08.709Z,6.95
2023-04-11T00:27:36.941Z,7.13
2023-04-11T00:30:06.166Z,6.65
2023-04-11T00:32:34.701Z,6.60
2023-04-11T00:35:04.349Z,6.78
2023-04-11T00:37:36.329Z,6.88
2023-04-11T00:40:07.808Z,6.50
2023-04-11T00:42:35.970Z,7.00
2023-04-11T00:45:04.582Z,6.75
2023-04-11T00:47:34.922Z,8.07
2023-04-11T00:50:04.783Z,6.88
2023-04-11T00:52:34.316Z,7.07
2023-04-11T00:55:03.991Z,7.20
2023-04-11T00:57:32.301Z,6.78
2023-04-11T01:00:04.242Z,7.28
2023-04-11T01:02:33.574Z,6.53
2023-04-11T01:05:01.954Z,6.63
2023-04-11T01:07:33.266Z,7.00
2023-04-11T01:10:02.643Z,6.90
2023-04-11T01:12:31.745Z,6.88
2023-04-11T01:15:00.352Z,7.35
2023-04-11T01:17:28.785Z,7.15
2023-04-11T01:19:57.814Z,7.20
2023-04-11T01:22:27.675Z,7.35
2023-04-11T01:24:57.609Z,7.10
2023-04-11T01:27:27.056Z,6.82
2023-04-11T01:29:55.221Z,7.30
2023-04-11T01:32:25.096Z,7.75
2023-04-11T01:34:54.743Z,6.95
2023-04-11T01:37:22.982Z,6.53
2023-04-11T01:39:51.603Z,7.25
2023-04-11T01:42:22.161Z,6.75
2023-04-11T01:44:54.512Z,6.20
2023-04-11T01:47:23.110Z,6.18
2023-04-11T01:49:53.626Z,7.00
2023-04-11T01:52:21.800Z,6.80
2023-04-11T01:54:50.180Z,6.72
2023-04-11T01:57:19.768Z,6.60
2023-04-11T01:59:48.406Z,6.80
2023-04-11T02:02:17.339Z,7.25
2023-04-11T02:04:45.782Z,7.05
2023-04-11T02:07:16.090Z,6.72
2023-04-11T02:09:44.319Z,6.97
2023-04-11T02:12:12.619Z,7.13
2023-04-11T02:14:44.574Z,6.93
2023-04-11T02:17:14.750Z,6.85
2023-04-11T02:19:45.259Z,6.75
2023-04-11T02:22:13.808Z,6.65
2023-04-11T02:24:42.175Z,7.00
2023-04-11T02:27:12.613Z,6.40
2023-04-11T02:29:42.162Z,7.18
2023-04-11T02:32:10.626Z,6.60
2023-04-11T02:34:39.804Z,6.93
2023-04-11T02:37:08.025Z,6.80
2023-04-11T02:39:36.234Z,6.70
2023-04-11T02:42:04.555Z,6.47
2023-04-11T02:44:33.833Z,7.10
2023-04-11T02:47:04.182Z,6.80
2023-04-11T02:49:32.605Z,6.85
2023-04-11T02:52:01.718Z,6.28
2023-04-11T02:54:30.070Z,6.90
2023-04-11T02:57:02.065Z,6.68
2023-04-11T02:59:30.562Z,6.10
2023-04-11T03:02:01.075Z,6.43
2023-04-11T03:04:33.426Z,7.13
2023-04-11T03:07:12.456Z,5.82
2023-04-11T03:09:40.760Z,6.88
2023-04-11T03:12:09.198Z,6.28
2023-04-11T03:14:46.658Z,6.22
2023-04-11T03:17:14.842Z,6.15
2023-04-11T03:19:44.461Z,6.05
2023-04-11T03:22:13.195Z,5.50
2023-04-11T03:24:41.590Z,5.65
2023-04-11T03:27:09.947Z,5.63
2023-04-11T03:29:41.354Z,6.18
2023-04-11T03:32:16.164Z,6.20
2023-04-11T03:34:45.848Z,5.50
2023-04-11T03:37:14.791Z,5.20
2023-04-11T03:39:43.094Z,5.50
2023-04-11T03:42:12.662Z,6.28
2023-04-11T03:44:41.069Z,5.25
2023-04-11T03:47:09.436Z,5.72
2023-04-11T03:49:42.743Z,5.43
2023-04-11T03:52:12.658Z,5.95
2023-04-11T03:54:41.353Z,4.78
2023-04-11T03:57:12.000Z,4.80
2023-04-11T03:59:40.788Z,5.20
2023-04-11T04:02:12.111Z,5.70
2023-04-11T04:04:48.621Z,5.22
2023-04-11T04:07:31.907Z,5.35
2023-04-11T04:10:11.928Z,5.20
2023-04-11T04:12:41.966Z,5.78
2023-04-11T04:15:16.724Z,5.90
2023-04-11T04:17:48.011Z,5.45
2023-04-11T04:20:26.458Z,5.25
2023-04-11T04:23:00.163Z,6.45
2023-04-11T04:25:43.125Z,5.28
2023-04-11T04:28:12.836Z,6.47
2023-04-11T04:30:41.862Z,5.95
2023-04-11T04:33:14.667Z,6.05
2023-04-11T04:35:47.769Z,6.70
2023-04-11T04:38:19.460Z,6.43
2023-04-11T04:40:54.744Z,6.53
2023-04-11T04:43:27.241Z,6.28
2023-04-11T04:46:06.951Z,5.72
2023-04-11T04:48:45.074Z,6.13
2023-04-11T04:51:13.245Z,7.25
2023-04-11T04:53:43.596Z,6.90
2023-04-11T04:56:12.880Z,7.13
2023-04-11T04:58:47.272Z,7.05
2023-04-11T05:01:17.524Z,6.82
2023-04-11T05:03:50.762Z,6.88
2023-04-11T05:06:31.490Z,6.85
2023-04-11T05:09:06.024Z,7.00
2023-04-11T05:11:34.931Z,6.68
2023-04-11T05:14:03.363Z,6.93
2023-04-11T05:16:31.880Z,6.93
2023-04-11T05:19:02.007Z,7.43
2023-04-11T05:21:33.161Z,7.25
2023-04-11T05:24:02.829Z,7.72
2023-04-11T05:26:35.802Z,7.10
2023-04-11T05:29:04.454Z,7.35
2023-04-11T05:31:33.378Z,6.53
2023-04-11T05:34:03.466Z,7.15
2023-04-11T05:36:31.820Z,7.65
2023-04-11T05:39:00.920Z,7.47
2023-04-11T05:41:31.201Z,7.70
2023-04-11T05:43:59.467Z,6.35
2023-04-11T05:46:29.430Z,6.90
2023-04-11T05:48:58.833Z,6.85
2023-04-11T05:51:27.202Z,7.05
2023-04-11T05:53:55.617Z,7.03
2023-04-11T05:56:24.094Z,7.43
2023-04-11T05:58:53.986Z,7.10
2023-04-11T06:01:22.216Z,7.78
2023-04-11T06:03:50.874Z,8.32
2023-04-11T06:06:19.507Z,7.18
2023-04-11T06:08:47.869Z,7.80
2023-04-11T06:11:16.299Z,7.30
2023-04-11T06:13:44.448Z,7.53
2023-04-11T06:16:14.223Z,7.43
2023-04-11T06:18:42.525Z,8.38
2023-04-11T06:21:10.887Z,7.45
2023-04-11T06:23:39.147Z,9.05
2023-04-11T06:26:08.718Z,7.82
2023-04-11T06:28:37.982Z,7.45
2023-04-11T06:31:06.652Z,8.10
2023-04-11T06:33:36.608Z,7.82
2023-04-11T06:36:06.143Z,9.13
2023-04-11T06:38:36.604Z,8.45
2023-04-11T06:41:05.041Z,8.98
2023-04-11T06:43:33.243Z,10.15
2023-04-11T06:46:01.830Z,8.80
2023-04-11T06:48:30.133Z,7.80
2023-04-11T06:50:59.891Z,8.07
2023-04-11T06:53:28.375Z,7.38
2023-04-11T06:55:56.640Z,8.10
2023-04-11T06:58:24.837Z,8.05
2023-04-11T07:00:53.044Z,7.35
2023-04-11T07:03:21.347Z,7.20
2023-04-11T07:05:50.600Z,7.68
2023-04-11T07:08:20.656Z,7.93
2023-04-11T07:10:48.946Z,8.50
2023-04-11T07:13:17.197Z,7.68
2023-04-11T07:15:45.364Z,7.97
2023-04-11T07:18:14.193Z,8.13
2023-04-11T07:20:42.402Z,7.95
2023-04-11T07:23:10.933Z,7.22
2023-04-11T07:25:40.486Z,7.25
2023-04-11T07:28:08.691Z,6.93
2023-04-11T07:30:37.424Z,6.97
2023-04-11T07:33:05.900Z,6.78
2023-04-11T07:35:34.905Z,7.95
2023-04-11T07:38:03.488Z,7.07
2023-04-11T07:40:32.647Z,8.10
2023-04-11T07:43:02.808Z,7.72
2023-04-11T07:45:31.171Z,6.75
2023-04-11T07:47:59.446Z,5.75
2023-04-11T07:50:27.628Z,5.90
2023-04-11T07:52:56.768Z,5.90
2023-04-11T07:55:24.919Z,6.03
2023-04-11T07:57:53.148Z,5.70
2023-04-11T08:00:24.917Z,5.65
2023-04-11T08:02:53.419Z,5.97
2023-04-11T08:05:21.870Z,5.22
2023-04-11T08:07:50.082Z,3.47
2023-04-11T08:10:18.390Z,3.20
2023-04-11T08:12:46.661Z,2.70
2023-04-11T08:15:15.061Z,2.30
2023-04-11T08:17:45.626Z,2.83
2023-04-11T08:20:23.131Z,2.97
2023-04-11T08:22:51.494Z,2.72
2023-04-11T08:25:22.733Z,2.60
2023-04-11T08:27:52.468Z,2.60
2023-04-11T08:30:21.524Z,2.50
2023-04-11T08:32:51.433Z,2.15
2023-04-11T08:35:19.741Z,2.42
2023-04-11T08:37:49.476Z,2.08
2023-04-11T08:40:17.941Z,2.25
2023-04-11T08:42:47.007Z,1.83
2023-04-11T08:45:15.392Z,1.95
2023-04-11T08:47:45.649Z,2.17
2023-04-11T08:50:15.625Z,2.15
2023-04-11T08:52:46.100Z,1.52
2023-04-11T08:55:16.004Z,2.10
2023-04-11T08:57:44.238Z,1.88
2023-04-11T09:00:14.596Z,2.40
2023-04-11T09:03:00.666Z,1.92
2023-04-11T09:05:32.919Z,2.30
2023-04-11T09:08:03.266Z,3.42
2023-04-11T09:10:31.915Z,2.20
2023-04-11T09:13:00.724Z,1.88
2023-04-11T09:15:30.423Z,1.83
2023-04-11T09:18:00.876Z,2.05
2023-04-11T09:20:31.459Z,1.98
2023-04-11T09:23:00.332Z,1.95
2023-04-11T09:25:29.097Z,2.25
2023-04-11T09:28:09.890Z,2.00
2023-04-11T09:30:38.126Z,2.47
2023-04-11T09:33:21.870Z,2.13
2023-04-11T09:35:54.378Z,2.10
2023-04-11T09:38:30.722Z,1.80
2023-04-11T09:40:59.336Z,1.60
2023-04-11T09:43:27.647Z,1.75
2023-04-11T09:46:10.187Z,1.98
2023-04-11T09:48:46.033Z,2.00
2023-04-11T09:51:31.798Z,1.98
2023-04-11T09:54:05.250Z,2.00
2023-04-11T09:56:35.356Z,1.90
2023-04-11T09:59:05.368Z,1.55
2023-04-11T10:01:34.142Z,1.70
2023-04-11T10:04:04.452Z,1.70
2023-04-11T10:06:38.960Z,2.00
2023-04-11T10:09:09.707Z,1.38
2023-04-11T10:11:38.306Z,1.60
2023-04-11T10:14:06.558Z,1.80
2023-04-11T10:16:35.011Z,1.67
2023-04-11T10:19:26.067Z,1.30
2023-04-11T10:21:55.976Z,1.60
2023-04-11T10:24:26.592Z,2.10
2023-04-11T10:26:57.614Z,1.83
2023-04-11T10:29:51.196Z,1.92
2023-04-11T10:32:24.617Z,1.35
2023-04-11T10:35:21.740Z,1.52
2023-04-11T10:37:51.568Z,1.35
2023-04-11T10:40:20.753Z,1.55
2023-04-11T10:42:49.576Z,1.70
2023-04-11T10:45:19.662Z,1.42
2023-04-11T10:48:07.775Z,1.83
2023-04-11T10:50:40.751Z,1.23
2023-04-11T10:53:33.896Z,1.02
2023-04-11T10:56:02.385Z,1.38
2023-04-11T10:58:39.399Z,1.05
2023-04-11T11:01:26.182Z,1.10
2023-04-11T11:04:05.674Z,1.50
2023-04-11T11:06:46.230Z,1.30
2023-04-11T11:09:24.048Z,1.05
2023-04-11T11:12:07.540Z,1.00
2023-04-11T11:14:35.920Z,1.00
2023-04-11T11:17:04.557Z,0.80
2023-04-11T11:19:33.277Z,1.20
2023-04-11T11:22:03.914Z,1.00
2023-04-11T11:24:33.888Z,1.58
2023-04-11T11:27:02.038Z,1.42
2023-04-11T11:29:35.989Z,1.73
2023-04-11T11:32:04.660Z,1.50
2023-04-11T11:34:34.834Z,1.25
2023-04-11T11:37:05.165Z,3.97
2023-04-11T11:39:36.230Z,2.05
2023-04-11T11:42:04.895Z,1.67
2023-04-11T11:44:33.175Z,1.63
2023-04-11T11:47:05.646Z,1.15
2023-04-11T11:49:47.657Z,1.20
2023-04-11T11:52:32.931Z,1.00
2023-04-11T11:55:03.543Z,1.00
2023-04-11T11:57:31.807Z,1.13
2023-04-11T12:00:04.340Z,1.63
2023-04-11T12:02:36.147Z,1.20
2023-04-11T12:05:07.212Z,1.15
2023-04-11T12:07:38.725Z,1.13
2023-04-11T12:10:11.727Z,1.15
2023-04-11T12:12:41.885Z,1.27
2023-04-11T12:15:12.651Z,1.08
2023-04-11T12:17:41.796Z,1.17
2023-04-11T12:20:11.928Z,1.00
2023-04-11T12:22:40.486Z,1.15
2023-04-11T12:25:11.858Z,1.30
2023-04-11T12:27:41.006Z,1.13
2023-04-11T12:30:10.717Z,1.30
2023-04-11T12:32:39.250Z,1.20
2023-04-11T12:35:08.356Z,1.27
2023-04-11T12:37:36.745Z,1.10
2023-04-11T12:40:10.690Z,1.27
2023-04-11T12:45:13.286Z,1.60
2023-04-11T12:47:41.831Z,1.17
2023-04-11T12:50:10.596Z,1.20
2023-04-11T12:52:39.521Z,1.00
2023-04-11T12:55:08.682Z,1.17
2023-04-11T12:57:37.159Z,1.20
2023-04-11T13:00:09.101Z,1.90
2023-04-11T13:02:43.178Z,1.90
2023-04-11T13:05:14.273Z,1.45
2023-04-11T13:07:44.662Z,1.02
2023-04-11T13:10:15.678Z,1.00
2023-04-11T13:12:45.878Z,0.98
2023-04-11T13:15:16.998Z,0.90
2023-04-11T13:17:46.582Z,0.90
2023-04-11T13:20:15.029Z,0.70
2023-04-11T13:22:44.315Z,1.08
2023-04-11T13:25:13.121Z,0.73
2023-04-11T13:27:42.698Z,0.70
2023-04-11T13:30:12.006Z,0.60
2023-04-11T13:32:41.820Z,1.10
2023-04-11T13:35:10.749Z,1.10
2023-04-11T13:37:39.329Z,1.05
2023-04-11T13:40:10.824Z,1.13
2023-04-11T13:42:38.941Z,0.82
2023-04-11T13:45:08.049Z,0.73
2023-04-11T13:47:38.627Z,0.80
2023-04-11T13:50:10.136Z,0.90
2023-04-11T13:52:38.491Z,0.60
2023-04-11T13:55:07.661Z,0.98
2023-04-11T13:57:36.010Z,0.60
2023-04-11T14:00:11.237Z,0.80
2023-04-11T14:02:40.219Z,0.95
2023-04-11T14:05:11.437Z,0.82
2023-04-11T14:07:39.620Z,0.95
2023-04-11T14:10:08.638Z,0.80
2023-04-11T14:12:37.234Z,0.65
2023-04-11T14:15:06.269Z,1.05
2023-04-11T14:17:34.576Z,0.60
2023-04-11T14:20:03.710Z,0.90
2023-04-11T14:22:33.446Z,0.90
2023-04-11T14:25:01.836Z,0.80
2023-04-11T14:27:30.124Z,1.00
2023-04-11T14:29:58.394Z,0.80
2023-04-11T14:32:26.762Z,1.00
2023-04-11T14:34:55.041Z,1.00
2023-04-11T14:37:23.317Z,0.95
2023-04-11T14:39:53.303Z,0.88
2023-04-11T14:42:21.630Z,1.30
2023-04-11T14:44:50.406Z,0.98
2023-04-11T14:47:18.689Z,0.95
2023-04-11T14:49:47.157Z,0.90
2023-04-11T14:52:15.671Z,1.30
2023-04-11T14:54:44.114Z,0.90
2023-04-11T14:57:13.860Z,1.23
2023-04-11T14:59:43.326Z,1.02
2023-04-11T15:02:11.897Z,1.23
2023-04-11T15:04:40.651Z,1.83
2023-04-11T15:07:08.952Z,1.27
2023-04-11T15:09:37.159Z,0.80
2023-04-11T15:12:05.782Z,1.10
2023-04-11T15:14:35.478Z,1.65
2023-04-11T15:17:04.134Z,1.50
2023-04-11T15:19:32.310Z,1.10
2023-04-11T15:22:00.557Z,1.05
2023-04-11T15:24:28.921Z,1.00
2023-04-11T15:26:57.446Z,1.10
2023-04-11T15:29:25.863Z,1.00
2023-04-11T15:31:55.488Z,0.80
2023-04-11T15:34:24.890Z,1.10
2023-04-11T15:36:53.055Z,0.90
2023-04-11T15:39:21.312Z,1.10
2023-04-11T15:41:49.488Z,1.02
2023-04-11T15:44:18.030Z,1.08
2023-04-11T15:46:48.991Z,1.27
2023-04-11T15:49:19.091Z,1.20
2023-04-11T15:51:47.464Z,1.00
2023-04-11T15:54:15.674Z,1.20
2023-04-11T15:56:44.006Z,1.30
2023-04-11T15:59:12.963Z,1.40
2023-04-11T16:01:41.786Z,1.10
2023-04-11T16:04:11.339Z,1.30
2023-04-11T16:06:40.992Z,1.25
2023-04-11T16:09:09.247Z,1.55
2023-04-11T16:11:39.821Z,1.30
2023-04-11T16:14:08.171Z,1.00
2023-04-11T16:16:36.474Z,1.40
2023-04-11T16:19:04.646Z,0.90
2023-04-11T16:21:33.029Z,1.00
2023-04-11T16:24:02.605Z,0.88
2023-04-11T16:26:30.969Z,0.63
2023-04-11T16:28:59.159Z,0.90
2023-04-11T16:31:27.332Z,0.80
2023-04-11T16:33:56.042Z,1.05
2023-04-11T16:36:24.508Z,1.20
2023-04-11T16:38:52.730Z,1.23
2023-04-11T16:41:22.470Z,1.27
2023-04-11T16:43:50.710Z,1.17
2023-04-11T16:46:19.265Z,0.90
2023-04-11T16:48:47.629Z,1.40
2023-04-11T16:51:18.501Z,1.13
2023-04-11T16:53:47.454Z,1.30
2023-04-11T16:56:30.942Z,1.13
2023-04-11T16:59:01.567Z,1.30
2023-04-11T17:01:29.768Z,1.10
2023-04-11T17:03:58.392Z,1.20
2023-04-11T17:06:27.176Z,1.20
2023-04-11T17:08:57.057Z,1.50
2023-04-11T17:11:27.119Z,1.23
2023-04-11T17:13:56.161Z,1.63
2023-04-11T17:16:24.591Z,1.27
2023-04-11T17:18:53.279Z,0.95
2023-04-11T17:21:21.858Z,1.20
2023-04-11T17:23:50.705Z,1.33
2023-04-11T17:26:20.265Z,1.30
2023-04-11T17:28:50.393Z,1.10
2023-04-11T17:31:21.750Z,0.98
2023-04-11T17:33:50.397Z,1.42
2023-04-11T17:36:18.763Z,1.42
2023-04-11T17:38:49.417Z,0.98
2023-04-11T17:41:17.873Z,1.00
2023-04-11T17:43:46.971Z,1.20
2023-04-11T17:46:16.866Z,1.10
2023-04-11T17:48:45.521Z,1.10
2023-04-11T17:51:13.684Z,1.45
2023-04-11T17:53:42.559Z,1.20
2023-04-11T17:56:10.864Z,1.10
2023-04-11T17:58:42.512Z,1.02
2023-04-11T18:01:12.914Z,1.33
2023-04-11T18:03:42.718Z,1.10
2023-04-11T18:06:12.151Z,1.10
2023-04-11T18:08:51.006Z,1.30
2023-04-11T18:11:21.212Z,1.30
2023-04-11T18:13:50.514Z,1.45
2023-04-11T18:16:19.311Z,1.60
2023-04-11T18:18:49.444Z,1.33
2023-04-11T18:21:17.965Z,1.58
2023-04-11T18:23:46.874Z,1.67
2023-04-11T18:26:15.183Z,1.25
2023-04-11T18:28:43.406Z,1.90
2023-04-11T18:31:12.164Z,1.48
2023-04-11T18:33:43.895Z,1.70
2023-04-11T18:36:15.577Z,1.58
2023-04-11T18:38:44.137Z,1.70
2023-04-11T18:41:12.514Z,1.70
2023-04-11T18:43:41.332Z,1.50
2023-04-11T18:46:09.750Z,2.00
2023-04-11T18:48:38.172Z,1.90
2023-04-11T18:51:07.322Z,1.70
2023-04-11T18:53:37.657Z,1.63
2023-04-11T18:56:07.248Z,1.50
2023-04-11T18:58:39.727Z,1.60
2023-04-11T19:01:15.336Z,1.70
2023-04-11T19:03:46.543Z,1.50
2023-04-11T19:06:15.329Z,1.83
2023-04-11T19:08:46.296Z,1.52
2023-04-11T19:11:14.611Z,1.52
2023-04-11T19:13:43.214Z,1.52
2023-04-11T19:16:11.927Z,1.70
2023-04-11T19:18:40.497Z,1.92
2023-04-11T19:21:09.130Z,1.80
2023-04-11T19:23:40.287Z,2.00
2023-04-11T19:26:10.921Z,1.98
2023-04-11T19:28:40.455Z,2.30
2023-04-11T19:31:09.882Z,2.25
2023-04-11T19:33:38.966Z,2.17
2023-04-11T19:36:07.650Z,2.30
2023-04-11T19:38:36.205Z,2.17
2023-04-11T19:41:13.078Z,2.97
2023-04-11T19:43:42.801Z,2.42
2023-04-11T19:46:12.289Z,2.05
2023-04-11T19:48:41.352Z,1.65
2023-04-11T19:51:10.305Z,2.03
2023-04-11T19:53:39.189Z,1.60
2023-04-11T19:56:09.938Z,1.67
2023-04-11T19:58:39.904Z,1.60
2023-04-11T20:01:09.719Z,1.80
2023-04-11T20:03:40.196Z,2.30
2023-04-11T20:06:09.491Z,2.92
2023-04-11T20:08:38.197Z,2.50
2023-04-11T20:11:06.982Z,2.90
2023-04-11T20:13:36.015Z,2.67
2023-04-11T20:16:09.178Z,2.45
2023-04-11T20:18:37.416Z,2.60
2023-04-11T20:21:07.505Z,2.40
2023-04-11T20:23:37.167Z,2.10
2023-04-11T20:26:05.555Z,2.05
2023-04-11T20:28:33.679Z,2.38
2023-04-11T20:31:04.286Z,2.50
2023-04-11T20:33:33.918Z,1.70
2023-04-11T20:36:03.343Z,1.80
2023-04-11T20:38:32.084Z,1.70
2023-04-11T20:41:03.615Z,1.80
2023-04-11T20:43:32.383Z,1.30
2023-04-11T20:46:00.690Z,1.60
2023-04-11T20:48:32.038Z,1.55
2023-04-11T20:51:02.400Z,1.60
2023-04-11T20:53:30.768Z,1.92
2023-04-11T20:55:59.048Z,1.73
2023-04-11T20:58:28.198Z,1.85
2023-04-11T21:00:56.382Z,2.00
2023-04-11T21:03:24.660Z,1.85
2023-04-11T21:05:52.904Z,1.98
2023-04-11T21:08:24.028Z,1.65
2023-04-11T21:10:52.260Z,1.92
2023-04-11T21:13:20.796Z,2.05
2023-04-11T21:15:49.027Z,1.58
2023-04-11T21:18:17.337Z,2.00
2023-04-11T21:20:46.157Z,1.85
2023-04-11T21:23:14.307Z,2.30
2023-04-11T21:25:43.860Z,2.10
2023-04-11T21:28:12.147Z,2.25
2023-04-11T21:30:42.174Z,2.03
2023-04-11T21:33:11.126Z,1.90
2023-04-11T21:35:39.384Z,2.63
2023-04-11T21:38:08.452Z,2.78
2023-04-11T21:40:36.824Z,2.35
2023-04-11T21:43:06.883Z,2.25
2023-04-11T21:45:35.313Z,2.30
2023-04-11T21:48:03.584Z,2.00
2023-04-11T21:50:31.718Z,2.35
2023-04-11T21:52:59.841Z,2.33
2023-04-11T21:55:28.171Z,2.28
2023-04-11T21:57:56.627Z,2.95
2023-04-11T22:00:26.568Z,3.00
2023-04-11T22:02:54.929Z,2.50
2023-04-11T22:05:23.729Z,2.38
2023-04-11T22:07:52.084Z,2.72
2023-04-11T22:10:28.675Z,2.35
2023-04-11T22:13:03.589Z,2.70
2023-04-11T22:15:33.353Z,2.60
2023-04-11T22:18:02.387Z,2.90
2023-04-11T22:20:30.559Z,3.40
2023-04-11T22:22:58.791Z,2.70
2023-04-11T22:25:27.102Z,2.30
2023-04-11T22:27:55.656Z,2.25
2023-04-11T22:30:24.884Z,2.28
2023-04-11T22:32:55.554Z,2.58
2023-04-11T22:35:24.784Z,3.83
2023-04-11T22:37:53.927Z,4.30
2023-04-11T22:40:23.105Z,3.63
2023-04-11T22:42:51.933Z,3.20
2023-04-11T22:45:20.856Z,3.50
2023-04-11T22:47:53.939Z,3.35
2023-04-11T22:50:23.650Z,3.55
2023-04-11T22:52:51.870Z,3.72
2023-04-11T22:55:21.155Z,3.05
2023-04-11T22:57:49.524Z,3.03
2023-04-11T23:00:18.853Z,3.00
2023-04-11T23:02:47.304Z,3.55
2023-04-11T23:05:16.680Z,2.45
2023-04-11T23:07:46.399Z,2.60
2023-04-11T23:10:15.438Z,2.70
2023-04-11T23:12:44.507Z,2.67
2023-04-11T23:15:13.449Z,2.85
2023-04-11T23:17:41.914Z,2.38
2023-04-11T23:20:13.128Z,2.60
2023-04-11T23:22:43.875Z,2.83
2023-04-11T23:25:15.471Z,2.40
2023-04-11T23:27:44.443Z,3.22
2023-04-11T23:30:14.851Z,3.78
2023-04-11T23:32:43.260Z,3.80
2023-04-11T23:35:11.774Z,3.38
2023-04-11T23:37:40.822Z,2.47
2023-04-11T23:40:13.740Z,2.60
2023-04-11T23:42:43.445Z,2.30
2023-04-11T23:45:14.272Z,2.70
2023-04-11T23:47:42.548Z,2.80
2023-04-11T23:50:12.174Z,2.80
2023-04-11T23:52:40.789Z,2.33
2023-04-11T23:55:09.744Z,2.53
2023-04-11T23:57:37.869Z,1.88
